Aérodrome :







RETROUVEZ-NOUS SUR...

 
LOGIN :

S'inscrire | Disclaimer

   EN    FR    IT 

 









Légende :    VFR   VFR Marginal   IFR   IFR Intensif   IFR Très Intensif
Visi : 
Plafond : 
>= 8 km
>= 3000ft
5 à 8 km
1000 à 3000 ft
1500m à 5 km
500 à 1000 ft
800 à 1500m
200 à 500 ft
< 800m
< 200 ft
Symboles :   Orages  Brouillard  Fortes neiges  Fortes précipitations  Vent > 20 kt






- Altitude de l'aérodrome : 108 ft
- Code IATA : YGP


CYGP - Gaspé

DERNIER METAR :
  • 241800Z 08009KT 15SM BKN200 02/M03 A2989 RMK CI5 SLP126

METARs EXPIRÉS :
  • 241700Z 08010KT 15SM FEW220 02/M03 A2991 RMK CI2 SLP132
  • 241600Z 05005KT 15SM FEW180 03/M03 A2994 RMK CI1 SLP143

TAF TAF CYGP
Valide du 24 à 14h jusqu'au 25 à 02h UTC


241338Z 2414/2502 VRB03KT P6SM SCT180
BECMG 2414/2416 18010KT
BECMG 2422/2424 27005KT RMK NXT FCST BY 242000Z



MET'MAP, la Météo Aéronautique d'un coup d'oeil ! - Copyright ORBIFLY Décembre 2007 - Disclaimer

ORBIFLY MET'MAP TEAM :

Programmation & Développement : Alexandra Zaïnal
Sur une idée originale de : Baudouin d'Aumeries
Assistance à la programmation : Marc-Olivier Méhu
Soutien technique & logistique : Manuel Goepfert

Contact : metmap@orbifly.com




SOURCES & CREDITS :

   NOAA